This is the latest recevied weather packets stored in our database for station/object WL7CLI. If no packets are shown the sender has not sent any weather packets the latest 10 day(s).
| Time | Temp. | Humidity | Pressure | Rain* | Wind** | Luminosity | Snow |
|---|---|---|---|---|---|---|---|
| 1777481096 | 11.67° C | 60% | 1020.4 hPa | 0 mm | - | - | - |
| 1777480574 | 11.67° C | 59% | 1020.5 hPa | 0 mm | - | - | - |
| 1777480104 | 12.22° C | 60% | 1020.2 hPa | 0 mm | - | - | - |
| 1777479897 | 12.22° C | 61% | 1020.6 hPa | 0 mm | - | - | - |
| 1777479371 | 11.11° C | 63% | 1020.6 hPa | 0 mm | - | - | - |
| 1777478698 | 11.11° C | 63% | 1020.6 hPa | 0 mm | - | - | - |
| 1777478303 | 11.11° C | 64% | 1020.2 hPa | 0 mm | - | - | - |
| 1777478173 | 11.11° C | 65% | 1020.6 hPa | 0 mm | - | - | - |
| 1777477497 | 10.56° C | 64% | 1020.6 hPa | 0 mm | - | - | - |
| 1777476972 | 10.56° C | 67% | 1020.6 hPa | 0 mm | - | - | - |
| 1777476504 | 10° C | 71% | 1020.3 hPa | 0 mm | - | - | - |
| 1777476296 | 10° C | 70% | 1020.6 hPa | 0 mm | - | - | - |
| 1777475773 | 8.89° C | 73% | 1020.6 hPa | 0 mm | - | - | - |
| 1777475096 | 8.33° C | 76% | 1020.7 hPa | 0 mm | - | - | - |
| 1777474704 | 7.78° C | 77% | 1020.2 hPa | 0 mm | - | - | - |
| 1777474571 | 7.78° C | 77% | 1020.8 hPa | 0 mm | - | - | - |
| 1777473897 | 8.33° C | 72% | 1020.8 hPa | 0 mm | - | - | - |
| 1777473373 | 8.33° C | 69% | 1020.7 hPa | 0 mm | - | - | - |
| 1777472904 | 8.89° C | 70% | 1020.4 hPa | 0 mm | - | - | - |
| 1777472696 | 8.89° C | 69% | 1020.8 hPa | 0 mm | - | - | - |
| 1777472171 | 8.89° C | 69% | 1020.8 hPa | 0 mm | - | - | - |
| 1777471498 | 8.33° C | 71% | 1020.7 hPa | 0 mm | - | - | - |
| 1777471103 | 8.33° C | 71% | 1020.2 hPa | 0 mm | - | - | - |
| 1777470973 | 8.33° C | 71% | 1020.7 hPa | 0 mm | - | - | - |
| 1777470297 | 7.78° C | 72% | 1020.7 hPa | 0 mm | - | - | - |
* Rain latest hour (hover to see other rain measurements)
** Current wind speed in m/s (hover to see current wind gust speed)